createdAt,value
2017-07-21T00:00:06.183Z,16.74
2017-07-21T00:01:06.527Z,16.76
2017-07-21T00:02:05.679Z,16.82
2017-07-21T00:03:05.328Z,16.77
2017-07-21T00:04:05.342Z,16.82
2017-07-21T00:05:05.637Z,16.85
2017-07-21T00:06:05.660Z,16.74
2017-07-21T00:07:05.644Z,16.84
2017-07-21T00:08:05.644Z,16.81
2017-07-21T00:09:05.309Z,16.77
2017-07-21T00:10:06.487Z,16.84
2017-07-21T00:11:06.367Z,16.77
2017-07-21T00:12:05.321Z,16.72
2017-07-21T00:13:05.646Z,16.74
2017-07-21T00:14:05.618Z,16.67
2017-07-21T00:15:05.611Z,16.72
2017-07-21T00:16:05.600Z,16.63
2017-07-21T00:17:06.009Z,16.69
2017-07-21T00:18:05.305Z,16.69
2017-07-21T00:19:05.283Z,16.67
2017-07-21T00:20:06.027Z,16.73
2017-07-21T00:21:06.049Z,16.63
2017-07-21T00:22:06.049Z,16.69
2017-07-21T00:23:05.617Z,16.67
2017-07-21T00:24:05.264Z,16.63
2017-07-21T00:25:05.264Z,16.59
2017-07-21T00:26:05.267Z,16.65
2017-07-21T00:27:05.893Z,16.59
2017-07-21T00:28:06.444Z,16.63
2017-07-21T00:29:05.358Z,16.58
2017-07-21T00:30:05.567Z,16.59
2017-07-21T00:31:05.559Z,16.62
2017-07-21T00:32:05.565Z,16.59
2017-07-21T00:33:05.561Z,16.59
2017-07-21T00:34:04.909Z,16.58
2017-07-21T00:35:05.982Z,16.7
2017-07-21T00:36:05.915Z,16.66
2017-07-21T00:37:05.374Z,16.59
2017-07-21T00:38:05.538Z,16.63
2017-07-21T00:39:05.535Z,16.63
2017-07-21T00:40:05.220Z,16.63
2017-07-21T00:41:05.206Z,16.62
2017-07-21T00:42:05.208Z,16.62
2017-07-21T00:43:05.710Z,16.59
2017-07-21T00:44:05.560Z,16.58
2017-07-21T00:45:05.794Z,16.48
2017-07-21T00:46:05.506Z,16.48
2017-07-21T00:47:05.185Z,16.45
2017-07-21T00:48:05.188Z,16.45
2017-07-21T00:49:05.499Z,16.42
2017-07-21T00:50:05.901Z,16.47
2017-07-21T00:51:05.937Z,16.49
2017-07-21T00:52:05.333Z,16.48
2017-07-21T00:53:05.197Z,16.49
2017-07-21T00:54:05.744Z,16.49
2017-07-21T00:55:05.523Z,16.44
2017-07-21T00:56:05.681Z,16.37
2017-07-21T00:57:05.194Z,16.29
2017-07-21T00:58:05.153Z,16.32
2017-07-21T00:59:06.439Z,16.3
2017-07-21T01:00:05.489Z,16.27
2017-07-21T01:01:05.142Z,16.27
2017-07-21T01:02:05.136Z,16.27
2017-07-21T01:03:05.808Z,16.36
2017-07-21T01:04:05.921Z,16.33
2017-07-21T01:05:05.499Z,16.32
2017-07-21T01:06:05.148Z,16.32
2017-07-21T01:07:05.145Z,16.29
2017-07-21T01:08:05.118Z,16.22
2017-07-21T01:09:05.629Z,16.25
2017-07-21T01:10:06.421Z,16.25
2017-07-21T01:11:05.964Z,16.27
2017-07-21T01:12:05.102Z,16.29
2017-07-21T01:13:05.966Z,16.21
2017-07-21T01:14:05.877Z,16.16
2017-07-21T01:15:05.212Z,16.14
2017-07-21T01:16:05.410Z,16.21
2017-07-21T01:17:05.112Z,16.18
2017-07-21T01:18:05.124Z,16.1
2017-07-21T01:19:05.402Z,16.08
2017-07-21T01:20:05.368Z,16.06
2017-07-21T01:21:05.591Z,16.04
2017-07-21T01:22:05.208Z,15.98
2017-07-21T01:23:05.083Z,16.06
2017-07-21T01:24:05.385Z,16.04
2017-07-21T01:25:05.064Z,16.11
2017-07-21T01:26:05.377Z,16.08
2017-07-21T01:27:05.759Z,16.11
2017-07-21T01:28:06.282Z,16.08
2017-07-21T01:29:06.312Z,16.25
2017-07-21T01:30:05.386Z,16.1
2017-07-21T01:31:05.365Z,16.21
2017-07-21T01:32:04.720Z,16.25
2017-07-21T01:33:05.031Z,16.22
2017-07-21T01:34:05.355Z,16.18
2017-07-21T01:35:05.777Z,16.22
2017-07-21T01:36:05.023Z,16.29
2017-07-21T01:37:05.748Z,16.27
2017-07-21T01:38:05.334Z,16.27
2017-07-21T01:39:05.334Z,16.27
2017-07-21T01:40:05.382Z,16.32
2017-07-21T01:41:05.324Z,16.26
2017-07-21T01:42:04.997Z,16.27
2017-07-21T01:43:05.342Z,16.29
2017-07-21T01:44:05.321Z,16.34
2017-07-21T01:45:04.993Z,16.33
2017-07-21T01:46:05.327Z,16.26
2017-07-21T01:47:04.984Z,16.26
2017-07-21T01:48:05.324Z,16.27
2017-07-21T01:49:04.977Z,16.25
2017-07-21T01:50:05.302Z,16.22
2017-07-21T01:51:04.650Z,16.21
2017-07-21T01:52:05.288Z,16.17
2017-07-21T01:53:05.326Z,16.22
2017-07-21T01:54:05.286Z,16.1
2017-07-21T01:55:04.965Z,16.07
2017-07-21T01:56:05.296Z,16.06
2017-07-21T01:57:05.287Z,16.13
2017-07-21T01:58:04.975Z,16.07
2017-07-21T01:59:04.617Z,16.14
2017-07-21T02:00:05.266Z,16.08
2017-07-21T02:01:04.936Z,16.1
2017-07-21T02:02:04.937Z,16.06
2017-07-21T02:03:04.927Z,16.11
2017-07-21T02:04:05.240Z,16.13
2017-07-21T02:05:05.237Z,16.07
2017-07-21T02:06:05.010Z,16.08
2017-07-21T02:07:04.913Z,16.13
2017-07-21T02:08:05.226Z,16.17
2017-07-21T02:09:04.931Z,16.08
2017-07-21T02:10:05.246Z,16.16
2017-07-21T02:11:05.248Z,16.13
2017-07-21T02:12:04.893Z,16.14
2017-07-21T02:13:04.895Z,16.08
2017-07-21T02:14:04.904Z,16
2017-07-21T02:15:04.908Z,16.06
2017-07-21T02:16:04.881Z,16.11
2017-07-21T02:17:05.211Z,16.08
2017-07-21T02:18:05.189Z,16.07
2017-07-21T02:19:04.600Z,16.06
2017-07-21T02:20:05.219Z,16.11
2017-07-21T02:21:05.189Z,16.08
2017-07-21T02:22:04.888Z,16.04
2017-07-21T02:23:04.858Z,16.04
2017-07-21T02:24:04.860Z,16.14
2017-07-21T02:25:05.194Z,16.16
2017-07-21T02:26:05.342Z,16.14
2017-07-21T02:27:05.174Z,16.14
2017-07-21T02:28:04.835Z,16.21
2017-07-21T02:29:05.150Z,16.21
2017-07-21T02:30:04.842Z,16.22
2017-07-21T02:31:05.160Z,16.25
2017-07-21T02:32:05.167Z,16.26
2017-07-21T02:33:05.140Z,16.27
2017-07-21T02:34:05.165Z,16.26
2017-07-21T02:35:04.865Z,16.29
2017-07-21T02:36:04.823Z,16.32
2017-07-21T02:37:05.124Z,16.33
2017-07-21T02:38:04.810Z,16.32
2017-07-21T02:39:05.119Z,16.27
2017-07-21T02:40:04.487Z,16.34
2017-07-21T02:41:05.121Z,16.27
2017-07-21T02:42:04.808Z,16.32
2017-07-21T02:43:04.805Z,16.36
2017-07-21T02:44:04.792Z,16.29
2017-07-21T02:45:05.100Z,16.3
2017-07-21T02:46:04.773Z,16.22
2017-07-21T02:47:04.779Z,16.44
2017-07-21T02:48:05.088Z,16.33
2017-07-21T02:49:05.104Z,16.47
2017-07-21T02:50:04.764Z,16.32
2017-07-21T02:51:05.077Z,16.3
2017-07-21T02:52:04.431Z,16.33
2017-07-21T02:53:05.069Z,16.39
2017-07-21T02:54:05.075Z,16.33
2017-07-21T02:55:05.081Z,16.32
2017-07-21T02:56:05.058Z,16.33
2017-07-21T02:57:04.738Z,16.32
2017-07-21T02:58:05.050Z,16.29
2017-07-21T02:59:05.053Z,16.45
2017-07-21T03:00:04.727Z,16.29
2017-07-21T03:01:05.043Z,16.32
2017-07-21T03:02:04.716Z,16.3
2017-07-21T03:03:05.034Z,16.37
2017-07-21T03:04:05.051Z,16.45
2017-07-21T03:05:04.708Z,16.45
2017-07-21T03:06:05.026Z,16.4
2017-07-21T03:07:05.038Z,16.45
2017-07-21T03:08:04.697Z,16.44
2017-07-21T03:09:04.692Z,16.44
2017-07-21T03:10:05.032Z,16.33
2017-07-21T03:11:05.015Z,16.45
2017-07-21T03:12:05.004Z,16.37
2017-07-21T03:13:04.685Z,16.32
2017-07-21T03:14:04.996Z,16.42
2017-07-21T03:15:05.003Z,16.32
2017-07-21T03:16:04.348Z,16.29
2017-07-21T03:17:05.011Z,16.22
2017-07-21T03:18:04.666Z,16.17
2017-07-21T03:19:04.986Z,16.14
2017-07-21T03:20:04.995Z,16.14
2017-07-21T03:21:04.974Z,16.17
2017-07-21T03:22:04.653Z,16.1
2017-07-21T03:23:04.655Z,16.13
2017-07-21T03:24:04.666Z,16.13
2017-07-21T03:25:04.991Z,16.08
2017-07-21T03:26:04.961Z,16
2017-07-21T03:27:04.961Z,16.07
2017-07-21T03:28:04.975Z,16.04
2017-07-21T03:29:04.954Z,16.07
2017-07-21T03:30:04.659Z,16.06
2017-07-21T03:31:04.942Z,16.02
2017-07-21T03:32:04.620Z,15.93
2017-07-21T03:33:04.932Z,15.84
2017-07-21T03:34:04.611Z,15.81
2017-07-21T03:35:04.933Z,15.89
2017-07-21T03:36:04.965Z,15.92
2017-07-21T03:37:04.916Z,15.88
2017-07-21T03:38:04.910Z,15.86
2017-07-21T03:39:04.617Z,15.89
2017-07-21T03:40:04.272Z,15.83
2017-07-21T03:41:04.259Z,15.71
2017-07-21T03:42:04.904Z,15.71
2017-07-21T03:43:05.011Z,15.8
2017-07-21T03:44:04.296Z,15.8
2017-07-21T03:45:04.895Z,15.75
2017-07-21T03:46:04.566Z,15.74
2017-07-21T03:47:04.584Z,15.89
2017-07-21T03:48:04.875Z,15.91
2017-07-21T03:49:04.229Z,15.8
2017-07-21T03:50:04.545Z,15.84
2017-07-21T03:51:04.877Z,15.86
2017-07-21T03:52:04.218Z,15.84
2017-07-21T03:53:04.539Z,15.73
2017-07-21T03:54:04.560Z,15.84
2017-07-21T03:55:04.846Z,15.8
2017-07-21T03:56:04.525Z,15.89
2017-07-21T03:57:04.841Z,15.89
2017-07-21T03:58:04.540Z,15.86
2017-07-21T03:59:04.862Z,15.89
2017-07-21T04:00:04.189Z,15.83
2017-07-21T04:01:04.852Z,15.93
2017-07-21T04:02:04.503Z,15.77
2017-07-21T04:03:04.180Z,15.89
2017-07-21T04:04:04.847Z,15.92
2017-07-21T04:05:04.815Z,15.88
2017-07-21T04:06:04.813Z,15.88
2017-07-21T04:07:04.484Z,15.88
2017-07-21T04:08:04.802Z,15.89
2017-07-21T04:09:04.797Z,15.89
2017-07-21T04:10:04.478Z,15.86
2017-07-21T04:11:04.467Z,15.92
2017-07-21T04:12:04.812Z,15.96
2017-07-21T04:13:04.803Z,15.88
2017-07-21T04:14:04.145Z,15.93
2017-07-21T04:15:04.791Z,15.93
2017-07-21T04:16:04.768Z,15.96
2017-07-21T04:17:04.472Z,15.96
2017-07-21T04:18:04.769Z,15.88
2017-07-21T04:19:04.439Z,15.93
2017-07-21T04:20:04.437Z,15.93
2017-07-21T04:21:04.755Z,16.02
2017-07-21T04:22:04.435Z,15.99
2017-07-21T04:23:04.745Z,15.99
2017-07-21T04:24:04.429Z,15.99
2017-07-21T04:25:04.745Z,16.02
2017-07-21T04:26:04.727Z,16.1
2017-07-21T04:27:04.733Z,15.99
2017-07-21T04:28:04.403Z,16.08
2017-07-21T04:29:04.728Z,16.04
2017-07-21T04:30:04.401Z,16.16
2017-07-21T04:31:04.710Z,16.16
2017-07-21T04:32:04.713Z,16.13
2017-07-21T04:33:04.721Z,16.29
2017-07-21T04:34:04.390Z,16.18
2017-07-21T04:35:04.387Z,16.33
2017-07-21T04:36:04.709Z,16.39
2017-07-21T04:37:04.697Z,16.48
2017-07-21T04:38:04.687Z,16.48
2017-07-21T04:39:04.683Z,16.57
2017-07-21T04:40:04.695Z,16.59
2017-07-21T04:41:04.360Z,16.67
2017-07-21T04:42:04.412Z,16.66
2017-07-21T04:43:04.676Z,16.7
2017-07-21T04:44:04.349Z,16.67
2017-07-21T04:45:04.669Z,16.72
2017-07-21T04:46:04.347Z,16.76
2017-07-21T04:47:04.678Z,16.76
2017-07-21T04:48:04.660Z,16.74
2017-07-21T04:49:04.663Z,16.76
2017-07-21T04:50:04.650Z,16.87
2017-07-21T04:51:04.326Z,16.87
2017-07-21T04:52:04.665Z,16.88
2017-07-21T04:53:04.633Z,16.87
2017-07-21T04:54:04.632Z,16.88
2017-07-21T04:55:04.316Z,16.85
2017-07-21T04:56:04.629Z,16.9
2017-07-21T04:57:04.632Z,16.85
2017-07-21T04:58:04.627Z,16.94
2017-07-21T04:59:04.299Z,16.95
2017-07-21T05:00:04.293Z,16.99
2017-07-21T05:01:04.292Z,17.07
2017-07-21T05:02:04.610Z,17.06
2017-07-21T05:03:04.287Z,17.17
2017-07-21T05:04:04.602Z,17.35
2017-07-21T05:05:04.602Z,17.47
2017-07-21T05:06:04.598Z,17.57
2017-07-21T05:07:04.595Z,17.66
2017-07-21T05:08:04.600Z,17.84
2017-07-21T05:09:04.283Z,17.98
2017-07-21T05:10:04.593Z,18.13
2017-07-21T05:11:04.280Z,18.17
2017-07-21T05:12:03.966Z,18.16
2017-07-21T05:13:04.575Z,18.23
2017-07-21T05:14:04.577Z,18.2
2017-07-21T05:15:03.935Z,18.14
2017-07-21T05:16:03.939Z,18.17
2017-07-21T05:17:04.244Z,18.21
2017-07-21T05:18:04.565Z,18.06
2017-07-21T05:19:04.587Z,18.01
2017-07-21T05:20:04.255Z,18.05
2017-07-21T05:21:04.561Z,18.02
2017-07-21T05:22:04.238Z,17.96
2017-07-21T05:23:04.250Z,17.96
2017-07-21T05:24:04.572Z,18.1
2017-07-21T05:25:04.557Z,18.08
2017-07-21T05:26:04.549Z,18.02
2017-07-21T05:27:04.225Z,18.1
2017-07-21T05:28:04.226Z,18.17
2017-07-21T05:29:04.543Z,18.26
2017-07-21T05:30:04.217Z,18.2
2017-07-21T05:31:04.571Z,18.29
2017-07-21T05:32:04.545Z,18.34
2017-07-21T05:33:04.557Z,18.34
2017-07-21T05:34:04.548Z,18.35
2017-07-21T05:35:04.526Z,18.2
2017-07-21T05:36:04.537Z,18.21
2017-07-21T05:37:04.529Z,18.16
2017-07-21T05:38:03.878Z,18.17
2017-07-21T05:39:04.548Z,18.01
2017-07-21T05:40:04.522Z,18.06
2017-07-21T05:41:03.875Z,17.92
2017-07-21T05:42:04.514Z,17.92
2017-07-21T05:43:04.527Z,17.88
2017-07-21T05:44:04.227Z,17.94
2017-07-21T05:45:04.507Z,17.81
2017-07-21T05:46:04.210Z,17.87
2017-07-21T05:47:04.516Z,17.79
2017-07-21T05:48:04.510Z,17.79
2017-07-21T05:49:04.510Z,17.8
2017-07-21T05:50:04.178Z,17.8
2017-07-21T05:51:04.494Z,17.86
2017-07-21T05:52:04.493Z,17.86
2017-07-21T05:53:04.496Z,17.9
2017-07-21T05:54:04.527Z,17.96
2017-07-21T05:55:04.484Z,17.94
2017-07-21T05:56:03.842Z,18.11
2017-07-21T05:57:04.497Z,18.16
2017-07-21T05:58:04.162Z,18.21
2017-07-21T05:59:04.161Z,18.34
2017-07-21T06:00:04.479Z,18.41
2017-07-21T06:01:04.176Z,18.56
2017-07-21T06:02:04.477Z,18.6
2017-07-21T06:03:04.481Z,18.63
2017-07-21T06:04:04.487Z,18.74
2017-07-21T06:05:04.154Z,18.89
2017-07-21T06:06:04.494Z,19.02
2017-07-21T06:07:04.471Z,19.07
2017-07-21T06:08:04.141Z,19.3
2017-07-21T06:09:04.139Z,19.28
2017-07-21T06:10:04.135Z,19.34
2017-07-21T06:11:04.155Z,19.53
2017-07-21T06:12:04.455Z,19.46
2017-07-21T06:13:04.453Z,19.45
2017-07-21T06:14:04.457Z,19.49
2017-07-21T06:15:04.133Z,19.46
2017-07-21T06:16:04.129Z,19.52
2017-07-21T06:17:04.451Z,19.45
2017-07-21T06:18:04.459Z,19.53
2017-07-21T06:19:03.822Z,19.47
2017-07-21T06:20:04.465Z,19.42
2017-07-21T06:21:04.447Z,19.45
2017-07-21T06:22:04.440Z,19.4
2017-07-21T06:23:04.122Z,19.45
2017-07-21T06:24:04.118Z,19.49
2017-07-21T06:25:04.439Z,19.5
2017-07-21T06:26:04.112Z,19.6
2017-07-21T06:27:04.466Z,19.83
2017-07-21T06:28:04.116Z,19.79
2017-07-21T06:29:04.431Z,19.95
2017-07-21T06:30:03.814Z,20.15
2017-07-21T06:31:04.435Z,20.16
2017-07-21T06:32:04.431Z,20.26
2017-07-21T06:33:04.437Z,20.48
2017-07-21T06:34:04.448Z,20.58
2017-07-21T06:35:03.805Z,20.68
2017-07-21T06:36:04.425Z,20.72
2017-07-21T06:37:04.428Z,20.74
2017-07-21T06:38:04.474Z,20.71
2017-07-21T06:39:04.422Z,20.71
2017-07-21T06:40:04.438Z,20.67
2017-07-21T06:41:04.439Z,20.75
2017-07-21T06:42:04.422Z,20.76
2017-07-21T06:43:04.112Z,20.76
2017-07-21T06:44:04.446Z,20.79
2017-07-21T06:45:04.103Z,20.79
2017-07-21T06:46:04.453Z,20.71
2017-07-21T06:47:04.441Z,20.72
2017-07-21T06:48:04.098Z,20.72
2017-07-21T06:49:04.098Z,20.67
2017-07-21T06:50:04.452Z,20.72
2017-07-21T06:51:03.819Z,20.74
2017-07-21T06:52:04.105Z,20.88
2017-07-21T06:53:03.827Z,20.93
2017-07-21T06:54:04.106Z,21.06
2017-07-21T06:55:04.426Z,21.08
2017-07-21T06:56:04.436Z,21.11
2017-07-21T06:57:04.146Z,21.16
2017-07-21T06:58:04.434Z,21.13
2017-07-21T06:59:04.417Z,21.12
2017-07-21T07:00:04.747Z,21.15
2017-07-21T07:01:04.098Z,21.08
2017-07-21T07:02:04.112Z,21
2017-07-21T07:03:04.096Z,21
2017-07-21T07:04:04.442Z,20.9
2017-07-21T07:05:04.418Z,20.9
2017-07-21T07:06:04.421Z,20.79
2017-07-21T07:07:04.101Z,20.74
2017-07-21T07:08:03.774Z,20.71
2017-07-21T07:09:04.113Z,20.6
2017-07-21T07:10:04.420Z,20.53
2017-07-21T07:11:04.422Z,20.49
2017-07-21T07:12:04.422Z,20.53
2017-07-21T07:13:03.775Z,20.51
2017-07-21T07:14:04.102Z,20.54
2017-07-21T07:15:04.101Z,20.67
2017-07-21T07:16:04.420Z,20.83
2017-07-21T07:17:04.100Z,21.06
2017-07-21T07:18:04.128Z,21.58
2017-07-21T07:19:03.779Z,21.94
2017-07-21T07:20:04.423Z,22.08
2017-07-21T07:21:04.450Z,22.23
2017-07-21T07:22:03.779Z,22.18
2017-07-21T07:23:04.109Z,22.23
2017-07-21T07:24:04.438Z,22.16
2017-07-21T07:25:04.128Z,22.22
2017-07-21T07:26:03.783Z,22.64
2017-07-21T07:27:04.106Z,23.48
2017-07-21T07:28:04.103Z,24.21
2017-07-21T07:29:04.108Z,25.09
2017-07-21T07:30:04.441Z,25.76
2017-07-21T07:31:04.129Z,26.5
2017-07-21T07:32:04.450Z,27
2017-07-21T07:33:04.438Z,27.42
2017-07-21T07:34:03.794Z,27.83
2017-07-21T07:35:04.437Z,28.33
2017-07-21T07:36:04.141Z,28.82
2017-07-21T07:37:04.141Z,29.28
2017-07-21T07:38:04.449Z,29.75
2017-07-21T07:39:03.835Z,30.18
2017-07-21T07:40:16.875Z,30.25
2017-07-21T07:41:04.462Z,30.25
2017-07-21T07:42:04.472Z,30.25
2017-07-21T07:43:04.469Z,30.4
2017-07-21T07:44:04.185Z,30.75
2017-07-21T07:45:03.839Z,30.96
2017-07-21T07:46:04.692Z,31.18
2017-07-21T07:47:04.493Z,31.58
2017-07-21T07:48:04.535Z,31.72
2017-07-21T07:49:04.184Z,31.53
2017-07-21T07:50:04.532Z,31.33
2017-07-21T07:51:04.195Z,31.31
2017-07-21T07:52:03.883Z,31.28
2017-07-21T07:53:04.555Z,31.19
2017-07-21T07:54:04.548Z,31.15
2017-07-21T07:55:04.232Z,31.23
2017-07-21T07:56:04.565Z,31.25
2017-07-21T07:57:04.557Z,31.25
2017-07-21T07:58:04.245Z,31.04
2017-07-21T07:59:04.257Z,31.06
2017-07-21T08:00:04.585Z,30.81
2017-07-21T08:01:04.267Z,30.85
2017-07-21T08:02:04.282Z,30.69
2017-07-21T08:03:04.602Z,30.47
2017-07-21T08:04:04.609Z,30.07
2017-07-21T08:05:04.291Z,29.48
2017-07-21T08:06:04.294Z,28.64
2017-07-21T08:07:04.627Z,27.86
2017-07-21T08:08:04.638Z,27.27
2017-07-21T08:09:04.655Z,26.47
2017-07-21T08:10:04.340Z,25.74
2017-07-21T08:11:04.656Z,25.17
2017-07-21T08:12:04.660Z,24.74
2017-07-21T08:13:04.655Z,24.36
2017-07-21T08:14:04.687Z,24.12
2017-07-21T08:15:04.037Z,23.96
2017-07-21T08:16:04.666Z,23.81
2017-07-21T08:17:04.359Z,23.82
2017-07-21T08:18:04.048Z,23.82
2017-07-21T08:19:04.370Z,23.99
2017-07-21T08:20:04.360Z,24
2017-07-21T08:21:04.364Z,24.19
2017-07-21T08:22:04.712Z,24.22
2017-07-21T08:23:04.370Z,24.15
2017-07-21T08:24:04.395Z,24
2017-07-21T08:25:04.699Z,24.03
2017-07-21T08:26:04.386Z,23.93
2017-07-21T08:27:04.381Z,23.71
2017-07-21T08:28:04.398Z,23.78
2017-07-21T08:29:04.067Z,23.87
2017-07-21T08:30:04.389Z,23.87
2017-07-21T08:31:04.405Z,23.97
2017-07-21T08:32:04.740Z,24.07
2017-07-21T08:33:04.080Z,24.17
2017-07-21T08:34:04.423Z,24.11
2017-07-21T08:35:04.725Z,24.14
2017-07-21T08:36:04.411Z,24.34
2017-07-21T08:37:04.733Z,24.48
2017-07-21T08:38:04.418Z,24.48
2017-07-21T08:39:04.742Z,24.45
2017-07-21T08:40:04.763Z,24.36
2017-07-21T08:41:04.420Z,24.34
2017-07-21T08:42:04.423Z,24.22
2017-07-21T08:43:04.431Z,24.24
2017-07-21T08:44:04.760Z,24.22
2017-07-21T08:45:04.442Z,24.36
2017-07-21T08:46:04.765Z,24.46
2017-07-21T08:47:04.762Z,24.48
2017-07-21T08:48:04.769Z,24.56
2017-07-21T08:49:04.764Z,24.61
2017-07-21T08:50:04.441Z,24.59
2017-07-21T08:51:04.767Z,24.7
2017-07-21T08:52:04.794Z,24.67
2017-07-21T08:53:04.458Z,24.7
2017-07-21T08:54:04.815Z,24.71
2017-07-21T08:55:04.455Z,24.69
2017-07-21T08:56:04.781Z,24.69
2017-07-21T08:57:04.798Z,24.61
2017-07-21T08:58:04.788Z,24.56
2017-07-21T08:59:04.799Z,24.46
2017-07-21T09:00:04.479Z,24.45
2017-07-21T09:01:04.814Z,24.33
2017-07-21T09:02:04.475Z,24.32
2017-07-21T09:03:04.798Z,24.39
2017-07-21T09:04:04.159Z,24.46
2017-07-21T09:05:04.808Z,24.48
2017-07-21T09:06:04.483Z,24.71
2017-07-21T09:07:04.804Z,24.96
2017-07-21T09:08:04.830Z,25.01
2017-07-21T09:09:04.820Z,25.22
2017-07-21T09:10:04.496Z,25.24
2017-07-21T09:11:04.497Z,25.19
2017-07-21T09:12:04.822Z,25.37
2017-07-21T09:13:04.207Z,25.23
2017-07-21T09:14:04.833Z,25.19
2017-07-21T09:15:04.527Z,25.23
2017-07-21T09:16:04.846Z,25.23
2017-07-21T09:17:04.550Z,25.19
2017-07-21T09:18:04.514Z,25.17
2017-07-21T09:19:04.222Z,25.15
2017-07-21T09:20:04.844Z,25.02
2017-07-21T09:21:04.533Z,25
2017-07-21T09:22:04.556Z,24.85
2017-07-21T09:23:04.208Z,24.85
2017-07-21T09:24:04.857Z,24.64
2017-07-21T09:25:04.542Z,24.56
2017-07-21T09:26:04.896Z,24.42
2017-07-21T09:27:04.871Z,24.45
2017-07-21T09:28:04.548Z,24.27
2017-07-21T09:29:04.887Z,24.18
2017-07-21T09:30:04.896Z,24.11
2017-07-21T09:31:04.896Z,24.07
2017-07-21T09:32:04.888Z,23.93
2017-07-21T09:33:04.882Z,23.79
2017-07-21T09:34:04.886Z,23.67
2017-07-21T09:35:04.881Z,23.53
2017-07-21T09:36:04.912Z,23.29
2017-07-21T09:37:04.567Z,23.22
2017-07-21T09:38:04.921Z,22.96
2017-07-21T09:39:04.909Z,23.03
2017-07-21T09:40:04.922Z,22.88
2017-07-21T09:41:04.908Z,22.96
2017-07-21T09:42:04.901Z,22.99
2017-07-21T09:43:04.925Z,23.35
2017-07-21T09:44:04.903Z,23.52
2017-07-21T09:45:04.589Z,23.79
2017-07-21T09:46:04.587Z,24.04
2017-07-21T09:47:04.588Z,24.24
2017-07-21T09:48:04.586Z,24.45
2017-07-21T09:49:04.942Z,24.69
2017-07-21T09:50:04.939Z,24.87
2017-07-21T09:51:04.305Z,25.02
2017-07-21T09:52:04.609Z,25.17
2017-07-21T09:53:04.920Z,25.3
2017-07-21T09:54:04.282Z,25.26
2017-07-21T09:55:04.921Z,25.33
2017-07-21T09:56:04.925Z,25.26
2017-07-21T09:57:04.932Z,25.32
2017-07-21T09:58:04.929Z,25.24
2017-07-21T09:59:04.932Z,25.45
2017-07-21T10:00:04.946Z,25.49
2017-07-21T10:01:04.947Z,25.66
2017-07-21T10:02:04.646Z,25.69
2017-07-21T10:03:04.966Z,25.85
2017-07-21T10:04:04.624Z,25.96
2017-07-21T10:05:04.949Z,26
2017-07-21T10:06:04.648Z,26.15
2017-07-21T10:07:04.954Z,26.2
2017-07-21T10:08:04.955Z,26.19
2017-07-21T10:09:04.958Z,26.17
2017-07-21T10:10:04.963Z,26.16
2017-07-21T10:11:04.980Z,26.34
2017-07-21T10:12:04.967Z,26.37
2017-07-21T10:13:04.969Z,26.34
2017-07-21T10:14:04.974Z,26.41
2017-07-21T10:15:04.654Z,26.32
2017-07-21T10:16:04.660Z,26.23
2017-07-21T10:17:04.983Z,26.16
2017-07-21T10:18:04.668Z,26.04
2017-07-21T10:19:05.006Z,26.01
2017-07-21T10:20:04.674Z,26.06
2017-07-21T10:21:04.671Z,26.12
2017-07-21T10:22:04.996Z,26.16
2017-07-21T10:23:04.703Z,26.2
2017-07-21T10:24:04.682Z,26.23
2017-07-21T10:25:05.013Z,26.19
2017-07-21T10:26:04.704Z,26.11
2017-07-21T10:27:05.026Z,26.06
2017-07-21T10:28:05.077Z,25.85
2017-07-21T10:29:04.376Z,25.59
2017-07-21T10:30:05.027Z,25.38
2017-07-21T10:31:04.706Z,25.12
2017-07-21T10:32:05.031Z,25.02
2017-07-21T10:33:04.732Z,24.78
2017-07-21T10:34:05.058Z,24.7
2017-07-21T10:35:04.725Z,24.7
2017-07-21T10:36:05.043Z,24.7
2017-07-21T10:37:04.726Z,24.63
2017-07-21T10:38:05.049Z,24.56
2017-07-21T10:39:05.055Z,24.7
2017-07-21T10:40:05.108Z,24.86
2017-07-21T10:41:05.057Z,24.8
2017-07-21T10:42:04.736Z,24.87
2017-07-21T10:43:04.759Z,24.96
2017-07-21T10:44:05.064Z,25.05
2017-07-21T10:45:04.765Z,25.04
2017-07-21T10:46:05.124Z,25.11
2017-07-21T10:47:04.447Z,25.22
2017-07-21T10:48:05.087Z,25.27
2017-07-21T10:49:04.437Z,25.47
2017-07-21T10:50:04.773Z,25.6
2017-07-21T10:51:05.115Z,25.6
2017-07-21T10:52:04.765Z,25.6
2017-07-21T10:53:05.094Z,25.62
2017-07-21T10:54:05.100Z,25.71
2017-07-21T10:55:05.103Z,25.86
2017-07-21T10:56:04.777Z,25.99
2017-07-21T10:57:05.105Z,26
2017-07-21T10:58:04.787Z,26.2
2017-07-21T10:59:05.120Z,26.31
2017-07-21T11:00:04.792Z,26.47
2017-07-21T11:01:05.117Z,26.24
2017-07-21T11:02:05.116Z,26.07
2017-07-21T11:03:04.801Z,25.79
2017-07-21T11:04:05.160Z,25.56
2017-07-21T11:05:05.146Z,25.37
2017-07-21T11:06:04.813Z,25.3
2017-07-21T11:07:05.140Z,25.11
2017-07-21T11:08:04.841Z,25.07
2017-07-21T11:09:05.151Z,25
2017-07-21T11:10:05.142Z,25.01
2017-07-21T11:11:04.827Z,24.96
2017-07-21T11:12:05.149Z,24.93
2017-07-21T11:13:04.838Z,25
2017-07-21T11:14:04.528Z,24.8
2017-07-21T11:15:04.839Z,24.82
2017-07-21T11:16:05.169Z,24.7
2017-07-21T11:17:05.172Z,24.74
2017-07-21T11:18:05.166Z,24.86
2017-07-21T11:19:04.868Z,24.9
2017-07-21T11:20:04.880Z,24.92
2017-07-21T11:21:04.888Z,25.01
2017-07-21T11:22:05.188Z,24.93
2017-07-21T11:23:05.184Z,24.97
2017-07-21T11:24:04.871Z,24.9
2017-07-21T11:25:05.209Z,25
2017-07-21T11:26:05.190Z,24.92
2017-07-21T11:27:04.889Z,25.02
2017-07-21T11:28:04.877Z,24.96
2017-07-21T11:29:05.261Z,24.97
2017-07-21T11:30:05.202Z,25.08
2017-07-21T11:31:04.903Z,25.17
2017-07-21T11:32:04.886Z,25.23
2017-07-21T11:33:04.912Z,25.24
2017-07-21T11:34:05.219Z,25.32
2017-07-21T11:35:04.896Z,25.45
2017-07-21T11:36:04.901Z,25.38
2017-07-21T11:37:05.227Z,25.37
2017-07-21T11:38:05.236Z,25.41
2017-07-21T11:39:05.247Z,25.32
2017-07-21T11:40:04.933Z,25.3
2017-07-21T11:41:04.951Z,25.23
2017-07-21T11:42:05.263Z,25.3
2017-07-21T11:43:05.261Z,25.27
2017-07-21T11:44:05.249Z,25.34
2017-07-21T11:45:05.252Z,25.44
2017-07-21T11:46:04.933Z,25.39
2017-07-21T11:47:05.270Z,25.29
2017-07-21T11:48:05.279Z,25.2
2017-07-21T11:49:05.269Z,25.17
2017-07-21T11:50:05.021Z,25.2
2017-07-21T11:51:05.287Z,25.38
2017-07-21T11:52:05.274Z,25.57
2017-07-21T11:53:05.273Z,25.52
2017-07-21T11:54:04.975Z,25.47
2017-07-21T11:55:05.293Z,25.33
2017-07-21T11:56:05.283Z,25.26
2017-07-21T11:57:05.287Z,25.09
2017-07-21T11:58:04.969Z,25.11
2017-07-21T11:59:05.301Z,24.94
2017-07-21T12:00:05.299Z,24.85
2017-07-21T12:01:04.987Z,24.83
2017-07-21T12:02:05.336Z,24.83
2017-07-21T12:03:04.989Z,24.7
2017-07-21T12:04:05.308Z,24.63
2017-07-21T12:05:05.330Z,24.61
2017-07-21T12:06:05.002Z,24.63
2017-07-21T12:07:05.018Z,24.59
2017-07-21T12:08:05.343Z,24.67
2017-07-21T12:09:05.015Z,24.86
2017-07-21T12:10:05.343Z,25
2017-07-21T12:11:05.327Z,25.11
2017-07-21T12:12:05.382Z,25.27
2017-07-21T12:13:05.407Z,25.33
2017-07-21T12:14:05.027Z,25.42
2017-07-21T12:15:05.020Z,25.52
2017-07-21T12:16:05.346Z,25.54
2017-07-21T12:17:05.030Z,25.64
2017-07-21T12:18:05.033Z,25.76
2017-07-21T12:19:04.714Z,25.97
2017-07-21T12:20:08.190Z,25.96
2017-07-21T12:21:05.040Z,25.89
2017-07-21T12:22:05.373Z,25.85
2017-07-21T12:23:05.369Z,25.74
2017-07-21T12:24:05.052Z,25.78
2017-07-21T12:25:05.376Z,25.75
2017-07-21T12:26:05.396Z,25.78
2017-07-21T12:27:05.058Z,25.71
2017-07-21T12:28:05.397Z,25.69
2017-07-21T12:29:05.409Z,25.54
2017-07-21T12:30:05.075Z,25.49
2017-07-21T12:31:05.404Z,25.45
2017-07-21T12:32:05.072Z,25.37
2017-07-21T12:33:05.078Z,25.45
2017-07-21T12:34:05.096Z,25.34
2017-07-21T12:35:05.102Z,25.49
2017-07-21T12:36:05.413Z,25.44
2017-07-21T12:37:05.089Z,25.45
2017-07-21T12:38:05.089Z,25.47
2017-07-21T12:39:05.095Z,25.52
2017-07-21T12:40:04.795Z,25.52
2017-07-21T12:41:05.102Z,25.59
2017-07-21T12:42:05.106Z,25.62
2017-07-21T12:43:05.426Z,25.56
2017-07-21T12:44:05.109Z,25.54
2017-07-21T12:45:04.795Z,25.56
2017-07-21T12:46:05.442Z,25.6
2017-07-21T12:47:05.440Z,25.56
2017-07-21T12:48:05.442Z,25.57
2017-07-21T12:49:05.147Z,25.45
2017-07-21T12:50:05.480Z,25.56
2017-07-21T12:51:05.456Z,25.51
2017-07-21T12:52:05.175Z,25.52
2017-07-21T12:53:05.140Z,25.59
2017-07-21T12:54:05.463Z,25.62
2017-07-21T12:55:05.466Z,25.69
2017-07-21T12:56:05.150Z,25.66